Time;durP1;ratioP1;P1;durP2;ratioP2;P2;SDS_P1;SDS_P2;PMS_P1;PMS_P2;Temp;Humidity;BMP_temperature;BMP_pressure;BME280_temperature;BME280_humidity;BME280_pressure;Samples;Min_cycle;Max_cycle;Signal;HPM_P1;HPM_P2
2023/08/07 00:00:45;;;;;;;2.83;1.47;;;;;;;13.70;100.00;100227.28;5072689;28;20218;-77
2023/08/07 00:03:11;;;;;;;1.37;1.23;;;;;;;13.69;100.00;100236.81;5073014;28;20215;-76
2023/08/07 00:05:36;;;;;;;2.10;1.50;;;;;;;13.68;100.00;100237.72;5071192;28;20575;-77
2023/08/07 00:08:02;;;;;;;2.90;1.37;;;;;;;13.71;100.00;100234.19;5072374;28;20189;-77
2023/08/07 00:10:27;;;;;;;2.57;1.43;;;;;;;13.76;100.00;100237.56;5064035;28;20212;-77
2023/08/07 00:13:05;;;;;;;1.70;1.60;;;;;;;13.72;100.00;100239.34;5073666;28;20186;-76
2023/08/07 00:15:30;;;;;;;1.67;1.23;;;;;;;13.70;100.00;100245.47;5073324;28;20201;-75
2023/08/07 00:17:58;;;;;;;3.07;1.47;;;;;;;13.71;100.00;100239.41;5074755;28;20266;-76
2023/08/07 00:20:26;;;;;;;2.37;1.37;;;;;;;13.69;100.00;100241.16;5077315;28;20652;-77
2023/08/07 00:22:51;;;;;;;2.40;1.57;;;;;;;13.71;100.00;100245.44;5073604;28;20213;-77
2023/08/07 00:25:17;;;;;;;2.60;1.40;;;;;;;13.73;100.00;100242.81;5074409;28;20207;-76
2023/08/07 00:27:42;;;;;;;3.53;1.50;;;;;;;13.72;100.00;100244.53;5074602;28;20273;-77
2023/08/07 00:30:08;;;;;;;1.87;1.30;;;;;;;13.74;100.00;100246.25;5078047;28;20217;-77
2023/08/07 00:32:33;;;;;;;2.23;1.70;;;;;;;13.74;100.00;100248.84;5080013;28;20227;-76
2023/08/07 00:35:04;;;;;;;2.13;1.33;;;;;;;13.73;100.00;100248.03;5079103;28;20257;-77
2023/08/07 00:37:30;;;;;;;1.87;1.40;;;;;;;13.75;100.00;100250.56;5072833;28;20199;-76
2023/08/07 00:39:58;;;;;;;2.87;1.60;;;;;;;13.78;100.00;100250.50;5075474;28;20186;-77
2023/08/07 00:42:26;;;;;;;1.57;1.30;;;;;;;13.80;100.00;100252.16;5080140;28;20195;-77
2023/08/07 00:44:54;;;;;;;3.07;1.53;;;;;;;13.79;100.00;100257.41;5076381;28;20217;-77
2023/08/07 00:47:19;;;;;;;2.80;1.37;;;;;;;13.79;100.00;100257.41;5072274;28;20197;-76
2023/08/07 00:49:45;;;;;;;2.17;1.57;;;;;;;13.78;100.00;100251.34;5071948;28;20193;-77
2023/08/07 00:52:13;;;;;;;2.67;1.30;;;;;;;13.78;100.00;100260.91;5080090;28;20280;-77
2023/08/07 00:54:38;;;;;;;2.90;1.57;;;;;;;13.78;100.00;100266.94;5077566;28;20230;-76
2023/08/07 00:57:11;;;;;;;2.83;1.80;;;;;;;13.78;100.00;100260.91;5077201;28;20190;-77
2023/08/07 00:59:41;;;;;;;2.23;1.23;;;;;;;13.76;100.00;100260.09;5076527;28;20196;-77
2023/08/07 01:02:07;;;;;;;1.80;1.40;;;;;;;13.76;100.00;100270.50;5081031;28;20217;-78
2023/08/07 01:04:32;;;;;;;2.23;1.50;;;;;;;13.75;100.00;100263.56;5083872;28;20295;-77
2023/08/07 01:07:04;;;;;;;1.50;1.40;;;;;;;13.74;100.00;100273.13;5073429;28;20540;-77
2023/08/07 01:09:29;;;;;;;2.03;1.60;;;;;;;13.72;100.00;100260.16;5074328;28;20182;-76
2023/08/07 01:12:12;;;;;;;1.40;1.30;;;;;;;13.74;100.00;100269.66;5073261;28;20199;-77
2023/08/07 01:14:55;;;;;;;2.13;1.60;;;;;;;13.73;100.00;100266.22;5073893;28;20699;-76
2023/08/07 01:17:24;;;;;;;2.33;1.70;;;;;;;13.75;100.00;100267.06;5073978;28;20185;-77
2023/08/07 01:19:52;;;;;;;1.97;1.57;;;;;;;13.76;100.00;100268.75;5074065;28;20186;-77
2023/08/07 01:22:19;;;;;;;2.50;1.70;;;;;;;13.75;100.00;100267.06;5074319;28;20669;-76
2023/08/07 01:24:48;;;;;;;3.13;1.30;;;;;;;13.77;100.00;100267.00;5077858;28;20202;-76
2023/08/07 01:27:16;;;;;;;2.47;1.60;;;;;;;13.80;100.00;100280.78;5071115;28;20194;-76
2023/08/07 01:30:12;;;;;;;3.47;1.77;;;;;;;13.81;100.00;100276.44;5069472;28;20240;-77
2023/08/07 01:32:53;;;;;;;3.50;1.50;;;;;;;13.76;100.00;100273.09;5077261;28;20662;-76
2023/08/07 01:35:21;;;;;;;1.97;1.60;;;;;;;13.74;100.00;100285.28;5079896;28;20236;-77
2023/08/07 01:37:52;;;;;;;1.70;1.47;;;;;;;13.74;100.00;100282.66;5083949;28;20192;-76
2023/08/07 01:40:22;;;;;;;1.63;1.33;;;;;;;13.73;100.00;100284.44;5078300;28;20189;-76
2023/08/07 01:42:51;;;;;;;2.77;1.73;;;;;;;13.74;100.00;100282.66;5075657;28;20658;-76
2023/08/07 01:45:24;;;;;;;2.40;1.30;;;;;;;13.72;100.00;100283.56;5074580;28;20206;-76
2023/08/07 01:47:52;;;;;;;2.17;1.43;;;;;;;13.65;100.00;100282.00;5071406;28;20212;-75
2023/08/07 01:50:19;;;;;;;2.93;1.57;;;;;;;13.61;100.00;100284.69;5080138;28;20197;-77
2023/08/07 01:52:44;;;;;;;3.07;1.50;;;;;;;13.58;100.00;100296.00;5073563;28;20218;-78
2023/08/07 01:55:09;;;;;;;2.97;1.73;;;;;;;13.59;100.00;100296.88;5077293;28;20727;-77
2023/08/07 01:57:35;;;;;;;1.73;1.43;;;;;;;13.60;100.00;100298.59;5070464;28;20195;-77
2023/08/07 02:00:00;;;;;;;2.53;1.53;;;;;;;13.53;100.00;100293.50;5077807;28;20239;-77
2023/08/07 02:02:28;;;;;;;1.97;1.47;;;;;;;13.49;100.00;100293.59;5079232;28;20651;-77
2023/08/07 02:04:56;;;;;;;3.33;2.03;;;;;;;13.45;100.00;100289.34;5072170;28;20209;-77
2023/08/07 02:07:23;;;;;;;3.07;1.50;;;;;;;13.38;100.00;100288.59;5074298;28;20252;-77
2023/08/07 02:09:49;;;;;;;1.60;1.40;;;;;;;13.31;100.00;100287.88;5074005;28;20234;-77
2023/08/07 02:12:15;;;;;;;2.77;1.47;;;;;;;13.26;100.00;100292.28;5070618;28;20243;-75
2023/08/07 02:14:40;;;;;;;3.07;1.90;;;;;;;13.20;100.00;100295.88;5077131;28;20881;-76
2023/08/07 02:17:06;;;;;;;2.47;1.73;;;;;;;13.15;100.00;100299.44;5073852;28;20342;-76
2023/08/07 02:19:31;;;;;;;2.20;1.50;;;;;;;13.04;100.00;100297.91;5072068;28;20741;-77
2023/08/07 02:21:57;;;;;;;2.33;1.63;;;;;;;13.00;100.00;100300.63;5067944;28;20204;-77
2023/08/07 02:24:22;;;;;;;3.03;1.90;;;;;;;12.97;100.00;100301.50;5075220;28;20216;-76
2023/08/07 02:26:48;;;;;;;3.43;1.90;;;;;;;12.98;100.00;100299.78;5072811;28;20222;-76
2023/08/07 02:29:16;;;;;;;3.40;1.93;;;;;;;12.88;100.00;100301.69;5068571;28;20192;-77
2023/08/07 02:31:41;;;;;;;4.00;1.73;;;;;;;12.86;100.00;100303.44;5077107;28;20196;-77
2023/08/07 02:34:06;;;;;;;2.27;1.60;;;;;;;12.80;100.00;100301.81;5076050;28;20209;-77
2023/08/07 02:36:32;;;;;;;3.37;1.80;;;;;;;12.78;100.00;100296.63;5070626;28;20181;-77
2023/08/07 02:39:00;;;;;;;3.40;2.37;;;;;;;12.77;100.00;100294.97;5068634;28;20309;-77
2023/08/07 02:41:28;;;;;;;1.93;1.43;;;;;;;12.69;100.00;100293.38;5068022;28;21002;-76
2023/08/07 02:43:53;;;;;;;2.43;1.70;;;;;;;12.67;100.00;100293.38;5076302;28;20248;-76
2023/08/07 02:46:19;;;;;;;3.53;1.83;;;;;;;12.59;100.00;100293.53;5069135;28;20224;-77
2023/08/07 02:48:44;;;;;;;2.47;1.37;;;;;;;12.55;100.00;100294.47;5070666;28;20189;-77
2023/08/07 02:51:10;;;;;;;3.00;1.50;;;;;;;12.50;100.00;100294.53;5076801;28;20298;-77
2023/08/07 02:53:35;;;;;;;3.10;1.80;;;;;;;12.47;100.00;100298.94;5075547;28;20217;-76
2023/08/07 02:56:00;;;;;;;3.60;1.70;;;;;;;12.43;100.00;100300.72;5070750;28;20216;-76
2023/08/07 02:58:26;;;;;;;2.87;1.77;;;;;;;12.39;100.00;100300.81;5070122;28;20197;-76
2023/08/07 03:01:11;;;;;;;2.87;1.93;;;;;;;12.35;100.00;100293.06;5062697;28;20190;-76
2023/08/07 03:03:37;;;;;;;2.57;1.97;;;;;;;12.29;100.00;100297.50;5066239;28;20505;-76
2023/08/07 03:06:03;;;;;;;2.93;1.87;;;;;;;12.26;100.00;100302.72;5075184;28;20189;-75
2023/08/07 03:08:28;;;;;;;3.57;1.67;;;;;;;12.20;100.00;100290.72;5073267;28;20672;-76
2023/08/07 03:10:58;;;;;;;4.97;2.00;;;;;;;12.19;100.00;100296.78;5065629;28;20191;-76
2023/08/07 03:13:26;;;;;;;2.73;1.87;;;;;;;12.24;100.00;100297.56;5063149;28;20232;-77
2023/08/07 03:16:04;;;;;;;2.00;1.80;;;;;;;12.15;100.00;100293.38;5070926;28;20221;-77
2023/08/07 03:18:39;;;;;;;5.90;1.77;;;;;;;12.18;100.00;100302.84;5068435;28;20267;-77
2023/08/07 03:21:04;;;;;;;2.90;2.10;;;;;;;12.11;100.00;100296.03;5068521;28;20186;-76
2023/08/07 03:23:30;;;;;;;3.77;2.20;;;;;;;12.07;100.00;100300.41;5071298;28;20201;-77
2023/08/07 03:26:06;;;;;;;5.20;2.00;;;;;;;12.14;100.00;100289.06;5066409;28;20266;-77
2023/08/07 03:28:32;;;;;;;4.70;1.80;;;;;;;12.13;100.00;100296.84;5068366;28;20195;-76
2023/08/07 03:30:58;;;;;;;2.80;1.90;;;;;;;12.05;100.00;100296.97;5063392;28;20194;-76
2023/08/07 03:33:23;;;;;;;1.90;1.53;;;;;;;12.15;100.00;100295.97;5070324;28;20181;-75
2023/08/07 03:35:51;;;;;;;3.10;2.13;;;;;;;12.04;100.00;100300.44;5060998;28;20296;-75
2023/08/07 03:38:17;;;;;;;3.97;2.00;;;;;;;12.03;100.00;100299.59;5079172;28;20186;-75
2023/08/07 03:40:42;;;;;;;4.40;2.00;;;;;;;12.08;100.00;100293.50;5078844;28;20927;-76
2023/08/07 03:43:08;;;;;;;3.63;1.90;;;;;;;12.07;100.00;100299.56;5072107;28;20201;-76
2023/08/07 03:45:38;;;;;;;2.10;1.80;;;;;;;12.03;100.00;100299.59;5073962;28;21022;-75
2023/08/07 03:48:04;;;;;;;2.43;1.80;;;;;;;12.10;100.00;100296.94;5070137;28;20192;-75
2023/08/07 03:50:30;;;;;;;4.50;2.10;;;;;;;12.10;100.00;100305.56;5063926;28;20247;-77
2023/08/07 03:52:58;;;;;;;3.20;1.83;;;;;;;12.08;100.00;100302.13;5068203;28;20193;-76
2023/08/07 03:55:24;;;;;;;2.50;1.90;;;;;;;12.11;100.00;100304.69;5073302;28;20213;-75
2023/08/07 03:57:49;;;;;;;2.43;1.80;;;;;;;12.20;100.00;100304.53;5071429;28;20289;-77
2023/08/07 04:00:15;;;;;;;2.70;2.37;;;;;;;12.20;100.00;100308.88;5073333;28;20805;-77
2023/08/07 04:02:40;;;;;;;2.57;1.80;;;;;;;12.24;100.00;100312.28;5071553;28;21051;-75
2023/08/07 04:05:06;;;;;;;2.67;1.53;;;;;;;12.24;100.00;100307.06;5076306;28;20213;-76
2023/08/07 04:07:31;;;;;;;3.53;2.20;;;;;;;12.29;100.00;100303.53;5073979;28;20204;-76
2023/08/07 04:09:56;;;;;;;2.87;2.23;;;;;;;12.31;100.00;100300.94;5069162;28;20908;-76
2023/08/07 04:12:22;;;;;;;2.87;2.13;;;;;;;12.31;100.00;100306.13;5071697;28;20185;-76
2023/08/07 04:14:48;;;;;;;2.67;1.90;;;;;;;12.37;100.00;100303.41;5072012;28;20857;-76
2023/08/07 04:17:13;;;;;;;3.30;1.83;;;;;;;12.38;100.00;100297.34;5072917;28;20210;-75
2023/08/07 04:19:38;;;;;;;4.53;2.00;;;;;;;12.39;100.00;100306.00;5071207;28;20541;-77
2023/08/07 04:22:04;;;;;;;4.00;2.10;;;;;;;12.42;100.00;100306.78;5073535;28;20662;-76
2023/08/07 04:24:29;;;;;;;2.40;1.80;;;;;;;12.43;100.00;100305.91;5074141;28;20694;-77
2023/08/07 04:26:55;;;;;;;2.57;1.67;;;;;;;12.45;100.00;100308.47;5065831;28;20194;-76
2023/08/07 04:29:20;;;;;;;2.83;1.67;;;;;;;12.46;100.00;100308.47;5072245;28;20236;-75
2023/08/07 04:31:48;;;;;;;3.13;1.93;;;;;;;12.48;100.00;100311.88;5071236;28;20193;-75
2023/08/07 04:34:13;;;;;;;3.07;2.13;;;;;;;12.54;100.00;100310.94;5075884;28;20208;-76
2023/08/07 04:36:39;;;;;;;2.50;2.03;;;;;;;12.59;100.00;100310.84;5069480;28;20193;-76
2023/08/07 04:39:04;;;;;;;3.30;2.10;;;;;;;12.58;100.00;100309.13;5078541;28;20552;-75
2023/08/07 04:41:29;;;;;;;6.13;1.87;;;;;;;12.60;100.00;100302.19;5072978;28;20295;-76
2023/08/07 04:43:55;;;;;;;3.20;1.90;;;;;;;12.68;100.00;100310.69;5073439;28;20250;-75
2023/08/07 04:46:23;;;;;;;2.93;1.83;;;;;;;12.69;100.00;100308.97;5072475;28;20260;-76
2023/08/07 04:48:51;;;;;;;2.17;1.97;;;;;;;12.70;100.00;100314.13;5070392;28;20191;-75
2023/08/07 04:51:16;;;;;;;3.23;2.03;;;;;;;12.72;100.00;100309.75;5070304;28;20190;-76
2023/08/07 04:53:41;;;;;;;4.10;1.83;;;;;;;12.78;100.00;100314.81;5074695;28;20688;-77
2023/08/07 04:56:07;;;;;;;2.47;1.90;;;;;;;12.86;100.00;100322.47;5073236;28;20210;-77
2023/08/07 04:58:35;;;;;;;2.67;2.03;;;;;;;12.85;100.00;100325.13;5074498;28;20591;-76
2023/08/07 05:01:03;;;;;;;2.57;2.13;;;;;;;12.86;100.00;100327.66;5075246;28;20212;-76
2023/08/07 05:03:30;;;;;;;2.03;1.60;;;;;;;12.90;100.00;100331.94;5071574;28;20210;-75
2023/08/07 05:05:59;;;;;;;3.27;2.00;;;;;;;12.94;100.00;100330.13;5073815;28;20202;-76
2023/08/07 05:08:25;;;;;;;3.07;1.90;;;;;;;12.96;100.00;100337.03;5071760;28;20199;-76
2023/08/07 05:10:50;;;;;;;2.03;1.87;;;;;;;13.00;100.00;100340.41;5064289;28;20199;-76
2023/08/07 05:13:16;;;;;;;2.23;1.77;;;;;;;13.04;100.00;100336.91;5072753;28;20645;-76
2023/08/07 05:15:42;;;;;;;2.60;1.87;;;;;;;13.07;100.00;100335.97;5078447;28;20700;-76
2023/08/07 05:18:07;;;;;;;2.67;2.17;;;;;;;13.11;100.00;100335.88;5070187;28;20659;-77
2023/08/07 05:20:35;;;;;;;1.87;1.50;;;;;;;13.14;100.00;100336.72;5068819;28;20786;-76
2023/08/07 05:23:01;;;;;;;2.07;1.70;;;;;;;13.16;100.00;100334.94;5071439;28;20220;-76
2023/08/07 05:25:26;;;;;;;2.63;2.00;;;;;;;13.21;100.00;100339.16;5069463;28;20683;-77
2023/08/07 05:27:51;;;;;;;2.00;1.70;;;;;;;13.24;100.00;100346.03;5071607;28;20254;-77
2023/08/07 05:30:17;;;;;;;3.07;2.17;;;;;;;13.27;100.00;100345.97;5068095;28;20214;-77
2023/08/07 05:32:42;;;;;;;3.70;1.97;;;;;;;13.29;100.00;100349.41;5071258;28;20252;-76
2023/08/07 05:35:08;;;;;;;3.83;2.10;;;;;;;13.35;100.00;100351.03;5071257;28;20208;-76
2023/08/07 05:37:34;;;;;;;4.00;2.10;;;;;;;13.41;100.00;100349.19;5077205;28;20187;-76
2023/08/07 05:40:00;;;;;;;5.40;2.30;;;;;;;13.51;100.00;100352.47;5081364;28;20213;-75
2023/08/07 05:42:25;;;;;;;3.47;1.87;;;;;;;13.57;100.00;100349.78;5082898;28;20263;-75
2023/08/07 05:44:51;;;;;;;3.40;2.03;;;;;;;13.63;100.00;100358.31;5069217;28;20246;-76
2023/08/07 05:47:19;;;;;;;4.43;2.00;;;;;;;13.68;100.00;100361.69;5072689;28;20220;-76
2023/08/07 05:49:44;;;;;;;2.37;1.97;;;;;;;13.75;100.00;100352.88;5074226;28;20183;-75
2023/08/07 05:52:09;;;;;;;2.60;1.90;;;;;;;13.78;100.00;100362.34;5074987;28;20182;-76
2023/08/07 05:54:35;;;;;;;2.63;2.17;;;;;;;13.83;100.00;100370.94;5074997;28;20948;-77
2023/08/07 05:57:03;;;;;;;3.83;2.10;;;;;;;13.91;100.00;100365.56;5080115;28;20199;-75
2023/08/07 05:59:29;;;;;;;1.93;1.77;;;;;;;13.94;100.00;100368.06;5073996;28;20178;-77
2023/08/07 06:01:54;;;;;;;2.70;1.60;;;;;;;14.01;100.00;100367.91;5067871;28;20202;-76
2023/08/07 06:04:21;;;;;;;2.07;1.60;;;;;;;14.10;100.00;100376.41;5073497;28;20229;-75
2023/08/07 06:06:47;;;;;;;1.77;1.53;;;;;;;14.15;100.00;100365.00;5075199;28;20648;-76
2023/08/07 06:09:14;;;;;;;3.30;2.00;;;;;;;14.14;100.00;100370.25;5081266;28;20190;-76
2023/08/07 06:11:40;;;;;;;2.60;2.17;;;;;;;14.06;100.00;100372.16;5072983;28;20778;-77
2023/08/07 06:14:08;;;;;;;1.77;1.67;;;;;;;14.18;100.00;100369.28;5077482;28;20211;-77
2023/08/07 06:16:33;;;;;;;2.83;1.80;;;;;;;14.70;100.00;100372.41;5070598;28;20193;-77
2023/08/07 06:19:04;;;;;;;3.07;1.67;;;;;;;15.44;100.00;100379.19;5076540;28;20649;-77
2023/08/07 06:21:29;;;;;;;2.40;1.40;;;;;;;16.25;100.00;100372.53;5073149;28;20185;-76
2023/08/07 06:23:54;;;;;;;2.27;1.73;;;;;;;16.26;98.58;100369.88;5075050;28;20210;-77
2023/08/07 06:26:22;;;;;;;2.77;1.63;;;;;;;16.42;97.63;100375.44;5071671;28;20193;-77
2023/08/07 06:28:48;;;;;;;4.00;1.80;;;;;;;16.12;97.72;100369.44;5062601;28;20717;-77
2023/08/07 06:31:15;;;;;;;2.10;1.67;;;;;;;15.99;97.87;100382.00;5072103;28;20299;-77
2023/08/07 06:33:41;;;;;;;1.77;1.63;;;;;;;15.96;98.33;100384.72;5074309;28;20278;-76
2023/08/07 06:36:07;;;;;;;1.90;1.70;;;;;;;15.76;99.35;100377.44;5072006;28;20658;-77
2023/08/07 06:38:36;;;;;;;3.43;1.63;;;;;;;15.95;99.65;100385.63;5064878;28;20190;-77
2023/08/07 06:41:01;;;;;;;3.17;2.00;;;;;;;16.45;98.59;100379.75;5072674;28;20221;-77
2023/08/07 06:43:32;;;;;;;2.20;1.60;;;;;;;17.12;96.18;100370.56;5072875;28;20384;-78
2023/08/07 06:45:58;;;;;;;1.53;1.43;;;;;;;17.52;94.11;100376.16;5065600;28;20245;-76
2023/08/07 06:48:24;;;;;;;2.20;1.63;;;;;;;17.47;91.62;100380.72;5072526;28;20185;-77
2023/08/07 06:50:50;;;;;;;2.23;1.40;;;;;;;17.40;92.44;100377.44;5067317;28;20198;-78
2023/08/07 06:53:16;;;;;;;2.87;1.70;;;;;;;17.35;92.48;100376.78;5061427;28;20553;-78
2023/08/07 06:55:53;;;;;;;2.20;1.70;;;;;;;16.98;93.66;100383.25;5061190;28;20671;-78
2023/08/07 06:58:21;;;;;;;1.93;1.40;;;;;;;16.95;94.24;100385.97;5074738;28;20870;-77
2023/08/07 07:00:47;;;;;;;2.27;1.40;;;;;;;17.24;93.32;100384.16;5072046;28;20204;-76
2023/08/07 07:03:13;;;;;;;3.77;1.50;;;;;;;17.24;92.78;100387.59;5077374;28;20672;-77
2023/08/07 07:05:42;;;;;;;2.17;1.70;;;;;;;17.53;91.41;100393.56;5065401;28;20209;-77
2023/08/07 07:08:08;;;;;;;1.60;1.50;;;;;;;18.05;90.07;100388.16;5075701;28;20302;-79
2023/08/07 07:10:33;;;;;;;2.53;1.30;;;;;;;18.68;88.65;100381.34;5066688;28;20281;-76
2023/08/07 07:12:59;;;;;;;2.80;1.57;;;;;;;18.88;87.74;100388.38;5074312;28;20276;-77
2023/08/07 07:15:24;;;;;;;1.60;1.50;;;;;;;18.98;87.05;100394.13;5075150;28;20280;-77
2023/08/07 07:17:49;;;;;;;1.57;1.33;;;;;;;19.11;85.90;100389.19;5071929;28;20196;-77
2023/08/07 07:20:18;;;;;;;1.77;1.40;;;;;;;19.64;83.78;100396.47;5077054;28;20181;-77
2023/08/07 07:22:46;;;;;;;2.80;1.50;;;;;;;19.86;81.77;100399.91;5078566;28;20200;-79
2023/08/07 07:25:11;;;;;;;1.77;1.33;;;;;;;19.97;80.44;100394.16;5075128;28;20209;-77
2023/08/07 07:27:40;;;;;;;3.33;1.43;;;;;;;19.85;80.29;100400.81;5078013;28;20639;-77
2023/08/07 07:30:07;;;;;;;2.23;1.40;;;;;;;19.75;80.05;100397.75;5075747;28;20595;-78
2023/08/07 07:32:32;;;;;;;2.60;1.30;;;;;;;19.58;80.84;100398.53;5078672;28;20249;-76
2023/08/07 07:34:57;;;;;;;2.93;1.33;;;;;;;19.34;81.24;100403.94;5075104;28;20218;-78
2023/08/07 07:37:23;;;;;;;2.53;1.30;;;;;;;19.12;82.12;100409.25;5056859;28;20240;-79
2023/08/07 07:39:48;;;;;;;1.80;1.30;;;;;;;19.05;82.71;100408.66;5069275;28;20266;-78
2023/08/07 07:42:13;;;;;;;2.57;1.30;;;;;;;18.92;82.23;100410.91;5071051;28;20179;-77
2023/08/07 07:44:39;;;;;;;1.70;1.50;;;;;;;18.83;82.81;100416.53;5060096;28;20222;-77
2023/08/07 07:47:08;;;;;;;2.87;1.70;;;;;;;18.79;83.03;100417.56;5059276;28;20174;-77
2023/08/07 07:49:35;;;;;;;1.60;1.50;;;;;;;18.73;82.47;100418.69;5053354;28;20268;-78
2023/08/07 07:52:01;;;;;;;3.17;1.57;;;;;;;18.71;81.85;100418.75;5051124;28;20208;-77
2023/08/07 07:54:28;;;;;;;3.43;1.50;;;;;;;18.66;81.02;100419.88;5063513;28;20782;-77
2023/08/07 07:56:54;;;;;;;3.40;1.20;;;;;;;18.70;78.71;100422.28;5061463;28;20227;-76
2023/08/07 07:59:19;;;;;;;3.17;1.57;;;;;;;18.64;78.50;100421.69;5056410;28;20190;-76
2023/08/07 08:01:44;;;;;;;1.43;1.10;;;;;;;18.61;78.97;100419.19;5063023;28;20578;-76
2023/08/07 08:04:13;;;;;;;1.77;1.20;;;;;;;18.66;77.30;100425.09;5061480;28;20210;-78
2023/08/07 08:06:40;;;;;;;2.33;1.10;;;;;;;18.73;77.60;100413.44;5068187;28;20192;-76
2023/08/07 08:09:09;;;;;;;1.30;0.90;;;;;;;18.83;77.52;100429.66;5054073;28;20193;-78
2023/08/07 08:11:34;;;;;;;2.30;1.30;;;;;;;19.02;76.39;100435.88;5061996;28;20731;-77
2023/08/07 08:13:59;;;;;;;2.23;1.30;;;;;;;19.15;75.56;100443.22;5063755;28;20281;-78
2023/08/07 08:16:24;;;;;;;2.23;1.27;;;;;;;19.09;75.51;100444.34;5063472;28;20200;-76
2023/08/07 08:18:56;;;;;;;2.20;1.07;;;;;;;19.10;75.39;100451.28;5054463;28;20186;-76
2023/08/07 08:21:21;;;;;;;2.93;1.47;;;;;;;19.13;75.85;100450.31;5068920;28;20189;-77
2023/08/07 08:23:46;;;;;;;1.67;1.27;;;;;;;19.28;75.95;100454.06;5069319;28;20217;-77
2023/08/07 08:26:15;;;;;;;2.73;1.20;;;;;;;19.32;74.80;100448.59;5062546;28;20178;-78
2023/08/07 08:28:42;;;;;;;1.97;1.33;;;;;;;19.30;74.28;100457.44;5067049;28;20174;-77
2023/08/07 08:31:11;;;;;;;1.47;0.93;;;;;;;19.36;74.65;100454.56;5068521;28;20178;-77
2023/08/07 08:33:36;;;;;;;1.50;0.90;;;;;;;19.45;74.05;100446.28;5070194;28;20188;-76
2023/08/07 08:36:04;;;;;;;1.50;1.27;;;;;;;19.54;73.99;100454.69;5056048;28;20210;-75
2023/08/07 08:38:32;;;;;;;2.10;1.23;;;;;;;19.57;73.97;100454.56;5065826;28;20224;-76
2023/08/07 08:41:02;;;;;;;2.47;1.07;;;;;;;19.68;73.18;100446.19;5068851;28;20184;-77
2023/08/07 08:43:33;;;;;;;1.77;1.40;;;;;;;19.70;73.52;100444.34;5063343;28;20199;-77
2023/08/07 08:46:00;;;;;;;1.83;1.33;;;;;;;19.59;73.53;100443.06;5058417;28;20208;-77
2023/08/07 08:48:31;;;;;;;1.93;1.10;;;;;;;19.55;74.05;100445.91;5061996;28;20959;-77
2023/08/07 08:50:57;;;;;;;1.33;0.90;;;;;;;19.66;73.96;100438.41;5060051;28;20259;-76
2023/08/07 08:53:26;;;;;;;1.37;1.03;;;;;;;19.71;73.48;100443.44;5053350;28;20232;-77
2023/08/07 08:55:52;;;;;;;3.07;1.10;;;;;;;19.98;72.58;100441.38;5065401;28;20229;-78
2023/08/07 08:58:17;;;;;;;2.30;1.30;;;;;;;20.16;72.63;100452.81;5062307;28;20210;-77
2023/08/07 09:00:43;;;;;;;2.63;1.00;;;;;;;20.26;71.08;100450.59;5066659;28;20189;-77
2023/08/07 09:03:08;;;;;;;2.07;1.07;;;;;;;20.29;71.49;100460.97;5057404;28;20252;-76
2023/08/07 09:05:37;;;;;;;2.03;1.10;;;;;;;20.29;71.31;100454.84;5056970;28;20344;-77
2023/08/07 09:08:02;;;;;;;1.67;1.13;;;;;;;20.29;71.91;100457.47;5064078;28;20189;-76
2023/08/07 09:10:29;;;;;;;2.30;1.27;;;;;;;20.41;71.34;100446.41;5067631;28;20685;-78
2023/08/07 09:13:03;;;;;;;1.93;1.10;;;;;;;20.42;70.33;100448.09;5061716;28;20191;-76
2023/08/07 09:15:31;;;;;;;1.43;1.00;;;;;;;20.41;70.47;100457.75;5061319;28;20211;-76
2023/08/07 09:17:57;;;;;;;1.63;1.07;;;;;;;20.42;71.08;100442.81;5059309;28;20232;-77
2023/08/07 09:20:23;;;;;;;1.27;1.13;;;;;;;20.60;71.77;100445.50;5063836;28;20178;-77
2023/08/07 09:22:49;;;;;;;2.50;1.20;;;;;;;20.86;72.32;100446.88;5063939;28;20198;-77
2023/08/07 09:25:14;;;;;;;1.90;1.10;;;;;;;21.00;70.60;100447.06;5057080;28;20203;-78
2023/08/07 09:27:40;;;;;;;1.40;1.00;;;;;;;21.08;70.54;100448.47;5060046;28;20182;-76
2023/08/07 09:30:09;;;;;;;1.30;1.07;;;;;;;21.25;69.33;100453.69;5066898;28;20236;-76
2023/08/07 09:32:35;;;;;;;2.00;1.10;;;;;;;21.42;69.02;100446.72;5065876;28;20431;-77
2023/08/07 09:35:04;;;;;;;2.40;1.30;;;;;;;21.49;68.55;100445.47;5060368;28;20218;-76
2023/08/07 09:37:29;;;;;;;1.37;1.20;;;;;;;21.39;68.30;100447.72;5059569;28;20213;-77
2023/08/07 09:39:55;;;;;;;2.40;1.43;;;;;;;21.30;68.00;100446.44;5062093;28;20264;-78
2023/08/07 09:42:21;;;;;;;1.30;1.20;;;;;;;21.41;68.01;100451.13;5069801;28;20191;-79
2023/08/07 09:44:48;;;;;;;1.80;1.37;;;;;;;21.47;68.21;100448.19;5073120;28;20210;-78
2023/08/07 09:47:16;;;;;;;3.37;1.30;;;;;;;21.59;67.90;100449.31;5068052;28;20182;-79
2023/08/07 09:49:45;;;;;;;1.60;1.23;;;;;;;21.71;67.59;100452.25;5055578;28;20193;-82
2023/08/07 09:52:14;;;;;;;4.20;1.20;;;;;;;21.87;66.21;100450.50;5067014;28;20597;-78
2023/08/07 09:54:39;;;;;;;1.30;1.20;;;;;;;21.87;67.12;100453.16;5061876;28;20195;-77
2023/08/07 09:57:06;;;;;;;2.40;1.20;;;;;;;21.89;67.22;100455.72;5067522;28;20194;-80
2023/08/07 09:59:33;;;;;;;0.93;0.93;;;;;;;21.96;67.54;100456.22;5061758;28;20203;-77
2023/08/07 10:02:03;;;;;;;1.53;1.20;;;;;;;22.02;67.86;100453.25;5058416;28;20194;-78
2023/08/07 10:04:30;;;;;;;1.93;1.20;;;;;;;22.05;68.31;100458.34;5061201;28;20211;-79
2023/08/07 10:06:56;;;;;;;2.13;1.50;;;;;;;21.99;67.74;100448.16;5061625;28;20189;-77
2023/08/07 10:09:21;;;;;;;1.80;1.13;;;;;;;22.00;68.09;100452.50;5057999;28;20173;-78
2023/08/07 10:11:51;;;;;;;1.40;1.10;;;;;;;22.01;67.68;100447.13;5060410;28;20259;-79
2023/08/07 10:14:17;;;;;;;1.70;0.90;;;;;;;21.98;68.08;100446.47;5058271;28;20277;-78
2023/08/07 10:16:43;;;;;;;1.60;1.30;;;;;;;21.95;68.42;100438.72;5057951;28;20182;-78
2023/08/07 10:19:09;;;;;;;1.50;1.20;;;;;;;21.92;68.88;100437.94;5060652;28;20185;-78
2023/08/07 10:21:42;;;;;;;2.10;1.20;;;;;;;21.91;67.55;100436.25;5054575;28;20199;-78
2023/08/07 10:24:09;;;;;;;1.30;1.20;;;;;;;22.09;67.67;100436.19;5054104;28;20893;-78
2023/08/07 10:26:43;;;;;;;2.70;1.47;;;;;;;22.38;66.54;100441.63;5059763;28;20274;-78
2023/08/07 10:29:13;;;;;;;1.60;1.30;;;;;;;22.26;65.95;100442.31;5065555;28;20737;-79
2023/08/07 10:31:41;;;;;;;2.33;1.27;;;;;;;22.42;66.34;100439.69;5065306;28;20670;-78
2023/08/07 10:34:07;;;;;;;1.83;1.20;;;;;;;22.38;66.43;100431.94;5058352;28;21242;-79
2023/08/07 10:36:36;;;;;;;2.40;1.30;;;;;;;22.32;66.78;100431.41;5059966;28;20190;-78
2023/08/07 10:39:08;;;;;;;1.47;1.37;;;;;;;22.28;67.03;100432.53;5057641;28;20196;-78
2023/08/07 10:41:41;;;;;;;1.20;1.10;;;;;;;22.41;66.71;100437.94;5059764;28;20702;-78
2023/08/07 10:44:29;;;;;;;2.03;1.33;;;;;;;22.42;65.97;100440.56;5057636;28;20602;-78
2023/08/07 10:46:56;;;;;;;1.90;1.40;;;;;;;22.27;66.16;100442.22;5055344;28;20198;-79
2023/08/07 10:49:38;;;;;;;1.40;1.30;;;;;;;21.89;64.95;100434.63;5055931;28;20258;-78
2023/08/07 10:52:15;;;;;;;1.30;1.20;;;;;;;21.69;66.20;100438.34;5064939;28;20181;-79
2023/08/07 10:54:49;;;;;;;1.20;1.03;;;;;;;21.69;66.55;100439.19;5065435;28;20197;-77
2023/08/07 10:57:17;;;;;;;2.17;1.40;;;;;;;21.80;67.00;100438.63;5055658;28;20178;-78
2023/08/07 11:00:05;;;;;;;1.67;1.50;;;;;;;21.91;66.45;100438.03;5062596;28;20190;-78
2023/08/07 11:02:31;;;;;;;2.40;1.30;;;;;;;21.98;66.25;100449.94;5060881;28;20894;-78
2023/08/07 11:04:57;;;;;;;1.37;1.27;;;;;;;21.90;66.12;100442.44;5058617;28;20344;-80
2023/08/07 11:07:25;;;;;;;2.67;1.20;;;;;;;21.83;65.97;100442.84;5060030;28;20782;-79
2023/08/07 11:09:50;;;;;;;1.40;1.27;;;;;;;21.53;65.98;100440.91;5059927;28;20194;-77
2023/08/07 11:12:16;;;;;;;1.50;1.40;;;;;;;21.45;66.49;100441.28;5059735;28;20213;-77
2023/08/07 11:14:41;;;;;;;1.73;1.10;;;;;;;21.41;66.33;100447.63;5058057;28;20368;-79
2023/08/07 11:17:07;;;;;;;2.20;1.40;;;;;;;21.43;65.94;100437.88;5059576;28;20296;-78
2023/08/07 11:19:33;;;;;;;1.50;1.40;;;;;;;21.38;66.72;100445.19;5059434;28;20190;-78
2023/08/07 11:21:58;;;;;;;2.17;1.50;;;;;;;21.12;67.86;100442.97;5060320;28;20277;-77